Terminal Aerodrome Forecast
Issued by NWS

Home | Current Version | Previous Version | Text Only | Print | Product List | Glossary On
Versions: 1 2 3 4 5 6 7 8 9 10 11 12 13 14 15 16 17 18 19
000
FTUS44 KLZK 280500
TAFADF
TAF
KADF 280537Z 2806/2906 12003KT P6SM SCT250
     FM281000 VRB03KT 6SM BR SCT012 BKN250
      TEMPO 2810/2814 3SM BR BKN010
     FM281500 16004KT P6SM SCT025 BKN250
     FM281800 16008KT P6SM VCTS SCT030CB SCT100 BKN250=

USA.gov is the U.S. government's official web portal to all federal, state and local government web resources and services.